sensor_id;sensor_type;location;lat;lon;timestamp;pressure;altitude;pressure_sealevel;temperature;humidity
11525;BME280;5819;49.648;8.330;2023-02-13T00:01:04;102503.28;;;3.58;100.00
11525;BME280;5819;49.648;8.330;2023-02-13T00:03:32;102494.63;;;3.54;100.00
11525;BME280;5819;49.648;8.330;2023-02-13T00:06:00;102494.69;;;3.56;100.00
11525;BME280;5819;49.648;8.330;2023-02-13T00:08:29;102495.59;;;3.59;100.00
11525;BME280;5819;49.648;8.330;2023-02-13T00:10:57;102492.19;;;3.60;100.00
11525;BME280;5819;49.648;8.330;2023-02-13T00:13:25;102492.22;;;3.62;100.00
11525;BME280;5819;49.648;8.330;2023-02-13T00:15:56;102491.34;;;3.61;100.00
11525;BME280;5819;49.648;8.330;2023-02-13T00:18:25;102496.47;;;3.61;100.00
11525;BME280;5819;49.648;8.330;2023-02-13T00:21:01;102488.72;;;3.58;100.00
11525;BME280;5819;49.648;8.330;2023-02-13T00:23:32;102494.63;;;3.54;100.00
11525;BME280;5819;49.648;8.330;2023-02-13T00:26:04;102498.03;;;3.53;100.00
11525;BME280;5819;49.648;8.330;2023-02-13T00:28:32;102496.28;;;3.51;100.00
11525;BME280;5819;49.648;8.330;2023-02-13T00:31:03;102496.28;;;3.51;100.00
11525;BME280;5819;49.648;8.330;2023-02-13T00:33:31;102495.41;;;3.50;100.00
11525;BME280;5819;49.648;8.330;2023-02-13T00:36:08;102491.09;;;3.49;100.00
11525;BME280;5819;49.648;8.330;2023-02-13T00:38:38;102492.81;;;3.49;100.00
11525;BME280;5819;49.648;8.330;2023-02-13T00:41:06;102496.22;;;3.49;100.00
11525;BME280;5819;49.648;8.330;2023-02-13T00:43:35;102497.00;;;3.45;100.00
11525;BME280;5819;49.648;8.330;2023-02-13T00:46:04;102489.28;;;3.45;100.00
11525;BME280;5819;49.648;8.330;2023-02-13T00:48:33;102489.28;;;3.45;100.00
11525;BME280;5819;49.648;8.330;2023-02-13T00:51:02;102479.81;;;3.43;100.00
11525;BME280;5819;49.648;8.330;2023-02-13T00:53:30;102483.22;;;3.42;100.00
11525;BME280;5819;49.648;8.330;2023-02-13T00:55:59;102483.22;;;3.42;100.00
11525;BME280;5819;49.648;8.330;2023-02-13T00:58:27;102489.13;;;3.38;100.00
11525;BME280;5819;49.648;8.330;2023-02-13T01:00:57;102487.44;;;3.38;100.00
11525;BME280;5819;49.648;8.330;2023-02-13T01:03:25;102487.44;;;3.38;100.00
11525;BME280;5819;49.648;8.330;2023-02-13T01:05:54;102488.31;;;3.39;100.00
11525;BME280;5819;49.648;8.330;2023-02-13T01:08:24;102490.00;;;3.38;100.00
11525;BME280;5819;49.648;8.330;2023-02-13T01:10:54;102483.31;;;3.45;100.00
11525;BME280;5819;49.648;8.330;2023-02-13T01:13:24;102487.56;;;3.44;100.00
11525;BME280;5819;49.648;8.330;2023-02-13T01:15:52;102489.28;;;3.44;100.00
11525;BME280;5819;49.648;8.330;2023-02-13T01:18:20;102479.84;;;3.44;100.00
11525;BME280;5819;49.648;8.330;2023-02-13T01:20:56;102482.44;;;3.44;100.00
11525;BME280;5819;49.648;8.330;2023-02-13T01:23:25;102479.84;;;3.44;100.00
11525;BME280;5819;49.648;8.330;2023-02-13T01:25:55;102487.53;;;3.43;100.00
11525;BME280;5819;49.648;8.330;2023-02-13T01:28:25;102489.16;;;3.39;100.00
11525;BME280;5819;49.648;8.330;2023-02-13T01:30:54;102485.69;;;3.37;100.00
11525;BME280;5819;49.648;8.330;2023-02-13T01:33:23;102488.25;;;3.36;100.00
11525;BME280;5819;49.648;8.330;2023-02-13T01:35:51;102493.38;;;3.36;100.00
11525;BME280;5819;49.648;8.330;2023-02-13T01:38:19;102497.63;;;3.34;100.00
11525;BME280;5819;49.648;8.330;2023-02-13T01:40:50;102489.78;;;3.27;100.00
11525;BME280;5819;49.648;8.330;2023-02-13T01:43:19;102490.56;;;3.25;100.00
11525;BME280;5819;49.648;8.330;2023-02-13T01:45:52;102488.84;;;3.24;100.00
11525;BME280;5819;49.648;8.330;2023-02-13T01:48:24;102491.44;;;3.25;100.00
11525;BME280;5819;49.648;8.330;2023-02-13T01:50:57;102491.44;;;3.25;100.00
11525;BME280;5819;49.648;8.330;2023-02-13T01:53:29;102486.38;;;3.28;100.00
11525;BME280;5819;49.648;8.330;2023-02-13T01:56:02;102485.47;;;3.26;100.00
11525;BME280;5819;49.648;8.330;2023-02-13T01:58:35;102491.44;;;3.25;100.00
11525;BME280;5819;49.648;8.330;2023-02-13T02:01:05;102488.81;;;3.22;100.00
11525;BME280;5819;49.648;8.330;2023-02-13T02:03:37;102483.50;;;3.15;100.00
11525;BME280;5819;49.648;8.330;2023-02-13T02:06:19;102484.25;;;3.11;100.00
11525;BME280;5819;49.648;8.330;2023-02-13T02:08:52;102479.94;;;3.10;100.00
11525;BME280;5819;49.648;8.330;2023-02-13T02:11:27;102479.94;;;3.10;100.00
11525;BME280;5819;49.648;8.330;2023-02-13T02:13:57;102482.41;;;3.05;100.00
11525;BME280;5819;49.648;8.330;2023-02-13T02:16:32;102479.81;;;3.04;100.00
11525;BME280;5819;49.648;8.330;2023-02-13T02:19:04;102475.56;;;3.06;100.00
11525;BME280;5819;49.648;8.330;2023-02-13T02:21:47;102474.63;;;3.01;100.00
11525;BME280;5819;49.648;8.330;2023-02-13T02:27:53;102471.94;;;2.96;100.00
11525;BME280;5819;49.648;8.330;2023-02-13T02:33:34;102477.72;;;2.88;100.00
11525;BME280;5819;49.648;8.330;2023-02-13T02:36:19;102476.03;;;2.88;100.00
11525;BME280;5819;49.648;8.330;2023-02-13T02:39:01;102470.81;;;2.85;100.00
11525;BME280;5819;49.648;8.330;2023-02-13T02:41:42;102473.41;;;2.87;100.00
11525;BME280;5819;49.648;8.330;2023-02-13T02:44:30;102472.53;;;2.85;100.00
11525;BME280;5819;49.648;8.330;2023-02-13T02:47:08;102461.44;;;2.87;100.00
11525;BME280;5819;49.648;8.330;2023-02-13T02:50:05;102471.69;;;2.86;100.00
11525;BME280;5819;49.648;8.330;2023-02-13T02:52:41;102474.22;;;2.84;100.00
11525;BME280;5819;49.648;8.330;2023-02-13T02:55:22;102469.91;;;2.83;100.00
11525;BME280;5819;49.648;8.330;2023-02-13T02:57:59;102471.63;;;2.82;100.00
11525;BME280;5819;49.648;8.330;2023-02-13T03:00:48;102471.63;;;2.82;100.00
11525;BME280;5819;49.648;8.330;2023-02-13T03:03:35;102470.84;;;2.87;100.00
11525;BME280;5819;49.648;8.330;2023-02-13T03:06:27;102478.66;;;2.91;100.00
11525;BME280;5819;49.648;8.330;2023-02-13T03:08:59;102483.63;;;2.83;100.00
11525;BME280;5819;49.648;8.330;2023-02-13T03:11:52;102482.66;;;2.78;100.00
11525;BME280;5819;49.648;8.330;2023-02-13T03:14:38;102484.34;;;2.78;100.00
11525;BME280;5819;49.648;8.330;2023-02-13T03:17:10;102490.28;;;2.75;100.00
11525;BME280;5819;49.648;8.330;2023-02-13T03:20:03;102484.22;;;2.73;100.00
11525;BME280;5819;49.648;8.330;2023-02-13T03:23:05;102483.34;;;2.71;100.00
11525;BME280;5819;49.648;8.330;2023-02-13T03:25:56;102485.94;;;2.73;100.00
11525;BME280;5819;49.648;8.330;2023-02-13T03:28:35;102487.66;;;2.72;100.00
11525;BME280;5819;49.648;8.330;2023-02-13T03:31:30;102481.59;;;2.70;100.00
11525;BME280;5819;49.648;8.330;2023-02-13T03:34:04;102488.31;;;2.65;100.00
11525;BME280;5819;49.648;8.330;2023-02-13T03:36:40;102492.56;;;2.63;100.00
11525;BME280;5819;49.648;8.330;2023-02-13T03:39:39;102496.84;;;2.63;100.00
11525;BME280;5819;49.648;8.330;2023-02-13T03:42:17;102503.72;;;2.65;100.00
11525;BME280;5819;49.648;8.330;2023-02-13T03:44:53;102496.78;;;2.61;100.00
11525;BME280;5819;49.648;8.330;2023-02-13T03:47:36;102496.78;;;2.61;100.00
11525;BME280;5819;49.648;8.330;2023-02-13T03:50:06;102494.19;;;2.60;100.00
11525;BME280;5819;49.648;8.330;2023-02-13T03:52:38;102491.66;;;2.61;100.00
11525;BME280;5819;49.648;8.330;2023-02-13T03:55:12;102497.53;;;2.57;100.00
11525;BME280;5819;49.648;8.330;2023-02-13T03:58:04;102503.47;;;2.55;100.00
11525;BME280;5819;49.648;8.330;2023-02-13T04:00:54;102497.34;;;2.48;100.00
11525;BME280;5819;49.648;8.330;2023-02-13T04:03:27;102498.28;;;2.52;100.00
11525;BME280;5819;49.648;8.330;2023-02-13T04:06:03;102494.00;;;2.52;100.00
11525;BME280;5819;49.648;8.330;2023-02-13T04:08:33;102501.66;;;2.51;100.00
11525;BME280;5819;49.648;8.330;2023-02-13T04:11:07;102498.09;;;2.46;100.00
11525;BME280;5819;49.648;8.330;2023-02-13T04:13:41;102494.66;;;2.45;100.00
11525;BME280;5819;49.648;8.330;2023-02-13T04:16:15;102496.41;;;2.45;100.00
11525;BME280;5819;49.648;8.330;2023-02-13T04:18:44;102496.41;;;2.46;100.00
11525;BME280;5819;49.648;8.330;2023-02-13T04:21:13;102492.94;;;2.44;100.00
11525;BME280;5819;49.648;8.330;2023-02-13T04:23:40;102497.22;;;2.45;100.00
11525;BME280;5819;49.648;8.330;2023-02-13T04:26:14;102489.38;;;2.39;100.00
11525;BME280;5819;49.648;8.330;2023-02-13T04:28:43;102498.84;;;2.40;100.00
11525;BME280;5819;49.648;8.330;2023-02-13T04:31:11;102497.16;;;2.42;100.00
11525;BME280;5819;49.648;8.330;2023-02-13T04:33:39;102496.41;;;2.46;100.00
11525;BME280;5819;49.648;8.330;2023-02-13T04:36:07;102495.66;;;2.50;100.00
11525;BME280;5819;49.648;8.330;2023-02-13T04:38:35;102488.72;;;2.46;100.00
11525;BME280;5819;49.648;8.330;2023-02-13T04:41:03;102489.50;;;2.44;100.00
11525;BME280;5819;49.648;8.330;2023-02-13T04:43:32;102497.16;;;2.42;100.00
11525;BME280;5819;49.648;8.330;2023-02-13T04:46:00;102493.69;;;2.40;100.00
11525;BME280;5819;49.648;8.330;2023-02-13T04:48:28;102491.09;;;2.39;100.00
11525;BME280;5819;49.648;8.330;2023-02-13T04:50:56;102489.31;;;2.36;100.00
11525;BME280;5819;49.648;8.330;2023-02-13T04:53:24;102485.88;;;2.35;100.00
11525;BME280;5819;49.648;8.330;2023-02-13T04:55:52;102486.75;;;2.36;100.00
11525;BME280;5819;49.648;8.330;2023-02-13T04:58:20;102484.19;;;2.38;100.00
11525;BME280;5819;49.648;8.330;2023-02-13T05:00:49;102492.66;;;2.33;100.00
11525;BME280;5819;49.648;8.330;2023-02-13T05:03:17;102482.38;;;2.33;100.00
11525;BME280;5819;49.648;8.330;2023-02-13T05:05:47;102492.75;;;2.37;100.00
11525;BME280;5819;49.648;8.330;2023-02-13T05:08:15;102495.34;;;2.38;100.00
11525;BME280;5819;49.648;8.330;2023-02-13T05:10:43;102489.28;;;2.34;100.00
11525;BME280;5819;49.648;8.330;2023-02-13T05:13:11;102484.13;;;2.34;100.00
11525;BME280;5819;49.648;8.330;2023-02-13T05:15:39;102486.63;;;2.31;100.00
11525;BME280;5819;49.648;8.330;2023-02-13T05:18:08;102500.34;;;2.32;100.00
11525;BME280;5819;49.648;8.330;2023-02-13T05:20:36;102501.22;;;2.32;100.00
11525;BME280;5819;49.648;8.330;2023-02-13T05:23:04;102496.84;;;2.30;100.00
11525;BME280;5819;49.648;8.330;2023-02-13T05:25:49;102498.53;;;2.29;100.00
11525;BME280;5819;49.648;8.330;2023-02-13T05:28:17;102494.25;;;2.28;100.00
11525;BME280;5819;49.648;8.330;2023-02-13T05:31:02;102494.16;;;2.25;100.00
11525;BME280;5819;49.648;8.330;2023-02-13T05:33:32;102489.06;;;2.27;100.00
11525;BME280;5819;49.648;8.330;2023-02-13T05:36:00;102497.53;;;2.23;100.00
11525;BME280;5819;49.648;8.330;2023-02-13T05:38:28;102494.00;;;2.19;100.00
11525;BME280;5819;49.648;8.330;2023-02-13T05:40:57;102493.09;;;2.17;100.00
11525;BME280;5819;49.648;8.330;2023-02-13T05:43:25;102492.28;;;2.18;100.00
11525;BME280;5819;49.648;8.330;2023-02-13T05:46:01;102492.19;;;2.15;100.00
11525;BME280;5819;49.648;8.330;2023-02-13T05:48:29;102491.25;;;2.12;100.00
11525;BME280;5819;49.648;8.330;2023-02-13T05:50:59;102493.63;;;2.06;100.00
11525;BME280;5819;49.648;8.330;2023-02-13T05:53:27;102492.75;;;2.04;100.00
11525;BME280;5819;49.648;8.330;2023-02-13T05:55:55;102491.06;;;2.04;100.00
11525;BME280;5819;49.648;8.330;2023-02-13T05:58:23;102492.63;;;2.01;100.00
11525;BME280;5819;49.648;8.330;2023-02-13T06:00:54;102484.19;;;2.05;100.00
11525;BME280;5819;49.648;8.330;2023-02-13T06:03:23;102483.34;;;2.04;100.00
11525;BME280;5819;49.648;8.330;2023-02-13T06:05:51;102486.00;;;2.07;100.00
11525;BME280;5819;49.648;8.330;2023-02-13T06:08:21;102488.50;;;2.06;100.00
11525;BME280;5819;49.648;8.330;2023-02-13T06:10:50;102489.31;;;2.05;100.00
11525;BME280;5819;49.648;8.330;2023-02-13T06:13:17;102493.63;;;2.04;100.00
11525;BME280;5819;49.648;8.330;2023-02-13T06:15:46;102494.47;;;2.05;100.00
11525;BME280;5819;49.648;8.330;2023-02-13T06:18:16;102501.25;;;2.03;100.00
11525;BME280;5819;49.648;8.330;2023-02-13T06:20:44;102501.19;;;2.00;100.00
11525;BME280;5819;49.648;8.330;2023-02-13T06:23:12;102506.34;;;2.01;100.00
11525;BME280;5819;49.648;8.330;2023-02-13T06:25:41;102494.38;;;2.00;100.00
11525;BME280;5819;49.648;8.330;2023-02-13T06:28:09;102505.41;;;1.98;100.00
11525;BME280;5819;49.648;8.330;2023-02-13T06:30:37;102502.81;;;1.98;100.00
11525;BME280;5819;49.648;8.330;2023-02-13T06:33:05;102499.38;;;1.97;100.00
11525;BME280;5819;49.648;8.330;2023-02-13T06:35:33;102505.41;;;1.98;100.00
11525;BME280;5819;49.648;8.330;2023-02-13T06:38:01;102505.38;;;1.96;100.00
11525;BME280;5819;49.648;8.330;2023-02-13T06:40:30;102501.19;;;2.00;100.00
11525;BME280;5819;49.648;8.330;2023-02-13T06:42:59;102512.97;;;1.93;100.00
11525;BME280;5819;49.648;8.330;2023-02-13T06:45:27;102502.63;;;1.90;100.00
11525;BME280;5819;49.648;8.330;2023-02-13T06:47:55;102509.63;;;1.96;100.00
11525;BME280;5819;49.648;8.330;2023-02-13T06:50:23;102512.06;;;1.91;100.00
11525;BME280;5819;49.648;8.330;2023-02-13T06:52:51;102509.56;;;1.93;100.00
11525;BME280;5819;49.648;8.330;2023-02-13T06:55:19;102510.50;;;1.96;100.00
11525;BME280;5819;49.648;8.330;2023-02-13T06:57:47;102508.03;;;2.01;100.00
11525;BME280;5819;49.648;8.330;2023-02-13T07:00:18;102510.72;;;2.04;100.00
11525;BME280;5819;49.648;8.330;2023-02-13T07:02:46;102512.41;;;2.05;100.00
11525;BME280;5819;49.648;8.330;2023-02-13T07:05:15;102519.28;;;2.04;100.00
11525;BME280;5819;49.648;8.330;2023-02-13T07:07:43;102518.47;;;2.07;100.00
11525;BME280;5819;49.648;8.330;2023-02-13T07:10:12;102515.25;;;2.14;100.00
11525;BME280;5819;49.648;8.330;2023-02-13T07:12:41;102512.69;;;2.14;100.00
11525;BME280;5819;49.648;8.330;2023-02-13T07:15:11;102513.59;;;2.16;100.00
11525;BME280;5819;49.648;8.330;2023-02-13T07:17:41;102515.31;;;2.15;100.00
11525;BME280;5819;49.648;8.330;2023-02-13T07:20:09;102514.69;;;2.24;100.00
11525;BME280;5819;49.648;8.330;2023-02-13T07:22:38;102517.25;;;2.25;100.00
11525;BME280;5819;49.648;8.330;2023-02-13T07:25:06;102522.56;;;2.31;100.00
11525;BME280;5819;49.648;8.330;2023-02-13T07:27:34;102521.72;;;2.31;100.00
11525;BME280;5819;49.648;8.330;2023-02-13T07:30:02;102528.78;;;2.40;100.00
11525;BME280;5819;49.648;8.330;2023-02-13T07:32:30;102523.78;;;2.46;100.00
11525;BME280;5819;49.648;8.330;2023-02-13T07:34:59;102523.03;;;2.48;100.00
11525;BME280;5819;49.648;8.330;2023-02-13T07:37:28;102521.47;;;2.55;100.00
11525;BME280;5819;49.648;8.330;2023-02-13T07:39:56;102520.63;;;2.56;100.00
11525;BME280;5819;49.648;8.330;2023-02-13T07:42:24;102522.47;;;2.61;100.00
11525;BME280;5819;49.648;8.330;2023-02-13T07:44:51;102515.63;;;2.60;100.00
11525;BME280;5819;49.648;8.330;2023-02-13T07:47:19;102521.72;;;2.65;100.00
11525;BME280;5819;49.648;8.330;2023-02-13T07:49:47;102519.34;;;2.73;100.00
11525;BME280;5819;49.648;8.330;2023-02-13T07:52:17;102521.94;;;2.74;100.00
11525;BME280;5819;49.648;8.330;2023-02-13T07:54:44;102519.56;;;2.80;100.00
11525;BME280;5819;49.648;8.330;2023-02-13T07:57:14;102524.81;;;2.87;100.00
11525;BME280;5819;49.648;8.330;2023-02-13T07:59:42;102522.41;;;2.93;100.00
11525;BME280;5819;49.648;8.330;2023-02-13T08:02:11;102519.91;;;2.97;100.00
11525;BME280;5819;49.648;8.330;2023-02-13T08:04:41;102520.91;;;3.02;100.00
11525;BME280;5819;49.648;8.330;2023-02-13T08:07:11;102515.06;;;3.09;100.00
11525;BME280;5819;49.648;8.330;2023-02-13T08:09:43;102519.44;;;3.13;100.00
11525;BME280;5819;49.648;8.330;2023-02-13T08:12:29;102524.78;;;3.21;100.00
11525;BME280;5819;49.648;8.330;2023-02-13T08:14:57;102521.50;;;3.28;100.00
11525;BME280;5819;49.648;8.330;2023-02-13T08:17:24;102518.13;;;3.30;100.00
11525;BME280;5819;49.648;8.330;2023-02-13T08:19:52;102525.94;;;3.35;100.00
11525;BME280;5819;49.648;8.330;2023-02-13T08:22:21;102520.94;;;3.41;100.00
11525;BME280;5819;49.648;8.330;2023-02-13T08:24:50;102516.84;;;3.51;100.00
11525;BME280;5819;49.648;8.330;2023-02-13T08:27:18;102521.28;;;3.56;100.00
11525;BME280;5819;49.648;8.330;2023-02-13T08:29:48;102523.06;;;3.60;100.00
11525;BME280;5819;49.648;8.330;2023-02-13T08:32:16;102517.06;;;3.61;100.00
11525;BME280;5819;49.648;8.330;2023-02-13T08:34:44;102519.84;;;3.70;100.00
11525;BME280;5819;49.648;8.330;2023-02-13T08:37:12;102519.31;;;3.85;100.00
11525;BME280;5819;49.648;8.330;2023-02-13T08:39:41;102520.34;;;3.95;100.00
11525;BME280;5819;49.648;8.330;2023-02-13T08:42:10;102521.34;;;4.03;100.00
11525;BME280;5819;49.648;8.330;2023-02-13T08:44:42;102522.41;;;4.14;100.00
11525;BME280;5819;49.648;8.330;2023-02-13T08:47:10;102520.81;;;4.19;100.00
11525;BME280;5819;49.648;8.330;2023-02-13T08:49:38;102524.44;;;4.29;100.00
11525;BME280;5819;49.648;8.330;2023-02-13T08:52:07;102520.16;;;4.29;100.00
11525;BME280;5819;49.648;8.330;2023-02-13T08:54:34;102526.19;;;4.31;100.00
11525;BME280;5819;49.648;8.330;2023-02-13T08:57:02;102516.09;;;4.43;100.00
11525;BME280;5819;49.648;8.330;2023-02-13T08:59:31;102524.81;;;4.51;100.00
11525;BME280;5819;49.648;8.330;2023-02-13T09:01:59;102521.13;;;4.85;100.00
11525;BME280;5819;49.648;8.330;2023-02-13T09:04:27;102516.41;;;4.61;100.00
11525;BME280;5819;49.648;8.330;2023-02-13T09:06:55;102519.03;;;4.64;100.00
11525;BME280;5819;49.648;8.330;2023-02-13T09:09:23;102526.78;;;4.66;100.00
11525;BME280;5819;49.648;8.330;2023-02-13T09:11:51;102527.66;;;4.66;100.00
11525;BME280;5819;49.648;8.330;2023-02-13T09:14:21;102529.56;;;4.78;100.00
11525;BME280;5819;49.648;8.330;2023-02-13T09:16:51;102526.28;;;4.85;100.00
11525;BME280;5819;49.648;8.330;2023-02-13T09:19:19;102525.47;;;4.89;100.00
11525;BME280;5819;49.648;8.330;2023-02-13T09:21:48;102529.00;;;4.96;100.00
11525;BME280;5819;49.648;8.330;2023-02-13T09:24:16;102533.25;;;4.94;100.00
11525;BME280;5819;49.648;8.330;2023-02-13T09:26:43;102524.75;;;4.99;100.00
11525;BME280;5819;49.648;8.330;2023-02-13T09:29:11;102523.09;;;5.01;100.00
11525;BME280;5819;49.648;8.330;2023-02-13T09:31:39;102528.41;;;5.12;100.00
11525;BME280;5819;49.648;8.330;2023-02-13T09:34:08;102525.88;;;5.16;100.00
11525;BME280;5819;49.648;8.330;2023-02-13T09:36:36;102529.38;;;5.22;100.00
11525;BME280;5819;49.648;8.330;2023-02-13T09:39:04;102527.84;;;5.34;100.00
11525;BME280;5819;49.648;8.330;2023-02-13T09:41:35;102528.66;;;5.29;100.00
11525;BME280;5819;49.648;8.330;2023-02-13T09:44:09;102535.75;;;5.46;100.00
11525;BME280;5819;49.648;8.330;2023-02-13T09:46:59;102534.13;;;5.51;100.00
11525;BME280;5819;49.648;8.330;2023-02-13T09:49:31;102534.28;;;5.63;100.00
11525;BME280;5819;49.648;8.330;2023-02-13T09:52:00;102529.09;;;5.60;100.00
11525;BME280;5819;49.648;8.330;2023-02-13T09:54:28;102527.53;;;5.73;100.00
11525;BME280;5819;49.648;8.330;2023-02-13T09:56:59;102521.56;;;5.77;100.00
11525;BME280;5819;49.648;8.330;2023-02-13T09:59:45;102531.09;;;5.84;100.00
11525;BME280;5819;49.648;8.330;2023-02-13T10:02:27;102529.47;;;5.91;100.00
11525;BME280;5819;49.648;8.330;2023-02-13T10:05:06;102525.31;;;6.03;100.00
11525;BME280;5819;49.648;8.330;2023-02-13T10:07:42;102524.44;;;6.03;100.00
11525;BME280;5819;49.648;8.330;2023-02-13T10:10:19;102530.56;;;6.11;100.00
11525;BME280;5819;49.648;8.330;2023-02-13T10:12:55;102531.59;;;6.27;100.00
11525;BME280;5819;49.648;8.330;2023-02-13T10:15:32;102539.41;;;6.31;100.00
11525;BME280;5819;49.648;8.330;2023-02-13T10:18:07;102529.97;;;6.33;100.00
11525;BME280;5819;49.648;8.330;2023-02-13T10:20:41;102532.59;;;6.39;100.00
11525;BME280;5819;49.648;8.330;2023-02-13T10:23:17;102530.16;;;6.54;100.00
11525;BME280;5819;49.648;8.330;2023-02-13T10:25:51;102525.06;;;6.64;100.00
11525;BME280;5819;49.648;8.330;2023-02-13T10:28:28;102529.31;;;6.58;100.00
11525;BME280;5819;49.648;8.330;2023-02-13T10:31:03;102528.56;;;6.69;100.00
11525;BME280;5819;49.648;8.330;2023-02-13T10:33:37;102521.72;;;6.78;100.00
11525;BME280;5819;49.648;8.330;2023-02-13T10:36:16;102515.91;;;7.03;100.00
11525;BME280;5819;49.648;8.330;2023-02-13T10:38:54;102522.88;;;7.14;100.00
11525;BME280;5819;49.648;8.330;2023-02-13T10:41:26;102515.06;;;7.07;100.00
11525;BME280;5819;49.648;8.330;2023-02-13T10:44:08;102514.28;;;7.19;100.00
11525;BME280;5819;49.648;8.330;2023-02-13T10:46:48;102516.00;;;7.20;100.00
11525;BME280;5819;49.648;8.330;2023-02-13T10:49:34;102503.13;;;7.31;100.00
11525;BME280;5819;49.648;8.330;2023-02-13T10:52:13;102504.91;;;7.42;100.00
11525;BME280;5819;49.648;8.330;2023-02-13T10:55:04;102500.66;;;7.55;100.00
11525;BME280;5819;49.648;8.330;2023-02-13T10:57:53;102497.28;;;7.71;100.00
11525;BME280;5819;49.648;8.330;2023-02-13T11:00:28;102492.13;;;7.83;100.00
11525;BME280;5819;49.648;8.330;2023-02-13T11:03:00;102491.25;;;7.83;100.00
11525;BME280;5819;49.648;8.330;2023-02-13T11:05:30;102493.84;;;7.75;100.00
11525;BME280;5819;49.648;8.330;2023-02-13T11:08:00;102492.16;;;7.88;100.00
11525;BME280;5819;49.648;8.330;2023-02-13T11:10:28;102489.56;;;7.91;100.00
11525;BME280;5819;49.648;8.330;2023-02-13T11:13:14;102476.59;;;7.74;100.00
11525;BME280;5819;49.648;8.330;2023-02-13T11:15:55;102469.72;;;7.93;100.00
11525;BME280;5819;49.648;8.330;2023-02-13T11:18:26;102468.84;;;7.91;100.00
11525;BME280;5819;49.648;8.330;2023-02-13T11:21:00;102466.31;;;8.18;100.00
11525;BME280;5819;49.648;8.330;2023-02-13T11:23:42;102467.22;;;8.31;100.00
11525;BME280;5819;49.648;8.330;2023-02-13T11:26:13;102455.13;;;8.57;100.00
11525;BME280;5819;49.648;8.330;2023-02-13T11:28:48;102461.19;;;8.50;100.00
11525;BME280;5819;49.648;8.330;2023-02-13T11:31:26;102460.28;;;8.25;100.00
11525;BME280;5819;49.648;8.330;2023-02-13T11:33:54;102458.56;;;8.39;100.00
11525;BME280;5819;49.648;8.330;2023-02-13T11:36:26;102462.91;;;8.50;100.00
11525;BME280;5819;49.648;8.330;2023-02-13T11:39:01;102453.38;;;8.42;99.19
11525;BME280;5819;49.648;8.330;2023-02-13T11:41:36;102449.06;;;8.60;97.40
11525;BME280;5819;49.648;8.330;2023-02-13T11:44:19;102457.72;;;8.59;100.00
11525;BME280;5819;49.648;8.330;2023-02-13T11:46:50;102453.41;;;8.45;100.00
11525;BME280;5819;49.648;8.330;2023-02-13T11:49:20;102456.00;;;8.61;100.00
11525;BME280;5819;49.648;8.330;2023-02-13T11:51:51;102449.94;;;8.65;100.00
11525;BME280;5819;49.648;8.330;2023-02-13T11:54:28;102462.03;;;8.55;100.00
11525;BME280;5819;49.648;8.330;2023-02-13T11:56:58;102455.13;;;8.68;98.70
11525;BME280;5819;49.648;8.330;2023-02-13T11:59:32;102456.88;;;8.70;100.00
11525;BME280;5819;49.648;8.330;2023-02-13T12:02:23;102449.94;;;8.74;97.61
11525;BME280;5819;49.648;8.330;2023-02-13T12:04:53;102447.34;;;8.78;100.00
11525;BME280;5819;49.648;8.330;2023-02-13T12:07:24;102435.97;;;9.20;99.68
11525;BME280;5819;49.648;8.330;2023-02-13T12:09:59;102435.06;;;9.33;99.35
11525;BME280;5819;49.648;8.330;2023-02-13T12:12:32;102423.69;;;9.62;95.00
11525;BME280;5819;49.648;8.330;2023-02-13T12:15:14;102421.94;;;9.64;94.10
11525;BME280;5819;49.648;8.330;2023-02-13T12:17:44;102420.94;;;9.84;92.20
11525;BME280;5819;49.648;8.330;2023-02-13T12:20:16;102420.06;;;9.88;92.08
11525;BME280;5819;49.648;8.330;2023-02-13T12:22:55;102413.88;;;10.03;91.05
11525;BME280;5819;49.648;8.330;2023-02-13T12:28:12;102401.63;;;10.26;89.47
11525;BME280;5819;49.648;8.330;2023-02-13T12:31:19;102402.50;;;10.25;85.80
11525;BME280;5819;49.648;8.330;2023-02-13T12:36:59;102394.06;;;10.88;86.66
11525;BME280;5819;49.648;8.330;2023-02-13T12:39:33;102400.28;;;10.76;86.17
11525;BME280;5819;49.648;8.330;2023-02-13T12:42:19;102384.78;;;10.67;82.62
11525;BME280;5819;49.648;8.330;2023-02-13T12:45:25;102377.94;;;10.55;83.00
11525;BME280;5819;49.648;8.330;2023-02-13T12:48:11;102380.91;;;11.01;83.91
11525;BME280;5819;49.648;8.330;2023-02-13T12:50:53;102376.56;;;11.02;83.31
11525;BME280;5819;49.648;8.330;2023-02-13T12:53:33;102362.38;;;11.25;81.27
11525;BME280;5819;49.648;8.330;2023-02-13T12:56:26;102365.06;;;11.19;80.71
11525;BME280;5819;49.648;8.330;2023-02-13T12:59:04;102362.09;;;11.47;81.29
11525;BME280;5819;49.648;8.330;2023-02-13T13:04:45;102352.84;;;11.24;78.53
11525;BME280;5819;49.648;8.330;2023-02-13T13:13:14;102351.03;;;11.30;80.51
11525;BME280;5819;49.648;8.330;2023-02-13T13:15:53;102360.94;;;11.02;82.75
11525;BME280;5819;49.648;8.330;2023-02-13T13:18:34;102351.59;;;10.87;83.26
11525;BME280;5819;49.648;8.330;2023-02-13T13:21:15;102344.50;;;10.97;82.63
11525;BME280;5819;49.648;8.330;2023-02-13T13:23:48;102349.41;;;11.19;81.43
11525;BME280;5819;49.648;8.330;2023-02-13T13:26:27;102342.97;;;11.48;79.18
11525;BME280;5819;49.648;8.330;2023-02-13T13:29:04;102345.84;;;11.28;81.20
11525;BME280;5819;49.648;8.330;2023-02-13T13:31:35;102339.81;;;11.26;82.24
11525;BME280;5819;49.648;8.330;2023-02-13T13:34:06;102347.19;;;10.91;83.07
11525;BME280;5819;49.648;8.330;2023-02-13T13:36:42;102339.44;;;10.86;83.44
11525;BME280;5819;49.648;8.330;2023-02-13T13:39:23;102347.47;;;10.63;86.79
11525;BME280;5819;49.648;8.330;2023-02-13T13:42:03;102338.66;;;10.78;83.20
11525;BME280;5819;49.648;8.330;2023-02-13T13:44:54;102341.16;;;10.87;82.67
11525;BME280;5819;49.648;8.330;2023-02-13T13:47:46;102342.28;;;10.65;85.09
11525;BME280;5819;49.648;8.330;2023-02-13T13:50:19;102327.38;;;10.79;81.33
11525;BME280;5819;49.648;8.330;2023-02-13T13:53:06;102341.31;;;10.75;82.98